»·PEaware :: C-GLOL KSAN-KSBA

C-GLOL :: KSAN-KSBA

FLIGHT INFORMATION

Flight Status: Arrived
Operator: Privately registered:
Canada
More flights under this callsign
Pilot: Louis M. (12714)
Aircraft: Unknown
(LEG2)
More flights by this aircraft type
Origin: KSAN San Diego Intl-Lindbergh
United States
Destination: KSBA Santa Barbara Mun
United States
More flights between these airports :: More routes between these airports
Route: OCN V23 LAX V299 VTU VTU282 KWANG
File this flight plan on PilotEdge
Remarks: First ifr in a long time ... Aircraft has GPS, and IFR capabilities
Altitude:
(Current/Filed)
6,500ft
Speed:
(Current/Filed)
200kts
Departed: 17-Feb-17 09:11 AM
Arrived: 17-Feb-17 10:23 AM
Distance/Time
Traveled:
167nm/1:12
Distance/Time
To Go:
Arrived

Flight Plot

Page will automatically refresh every two minutes.


Map Options




Map Legend


Flown Route
Filed Route
Departure Airport
Arrival Airport
Navaid (VOR, NDB)
Fix

Horizontal Profiles

Position Reports

Time Latitude Longitude Heading Altitude Ground
Speed
17-Feb-17 09:01 32.732722 -117.197037 87 18ft 0kts
17-Feb-17 09:02 32.732722 -117.197036 87 18ft 0kts
17-Feb-17 09:03 32.732722 -117.197035 87 18ft 0kts
17-Feb-17 09:04 32.732722 -117.197034 87 18ft 0kts
17-Feb-17 09:05 32.732722 -117.197033 87 18ft 0kts
17-Feb-17 09:06 32.732722 -117.197032 87 19ft 0kts
17-Feb-17 09:07 32.732722 -117.197026 86 19ft 0kts
17-Feb-17 09:08 32.732723 -117.197024 86 19ft 0kts
17-Feb-17 09:09 32.732723 -117.197023 86 19ft 0kts
17-Feb-17 09:10 32.732723 -117.197023 85 19ft 0kts
17-Feb-17 09:11 32.733277 -117.192258 106 19ft 48kts
17-Feb-17 09:12 32.729592 -117.176701 101 19ft 27kts
17-Feb-17 09:13 32.729751 -117.175744 353 19ft 0kts
17-Feb-17 09:14 32.735741 -117.198369 287 280ft 138kts
17-Feb-17 09:15 32.758013 -117.229994 320 2342ft 123kts
17-Feb-17 09:16 32.787776 -117.256300 320 3721ft 129kts
17-Feb-17 09:17 32.816662 -117.279815 320 4984ft 127kts
17-Feb-17 09:18 32.852346 -117.308742 322 5091ft 183kts
17-Feb-17 09:19 32.902538 -117.313072 18 5445ft 197kts
17-Feb-17 09:20 32.952411 -117.299717 343 5979ft 195kts
17-Feb-17 09:21 33.008220 -117.315056 342 5955ft 210kts
17-Feb-17 09:22 33.063693 -117.337347 334 5954ft 211kts
17-Feb-17 09:23 33.119920 -117.359937 345 5953ft 215kts
17-Feb-17 09:24 33.173988 -117.385178 328 5954ft 211kts
17-Feb-17 09:25 33.228634 -117.412209 335 5953ft 213kts
17-Feb-17 09:26 33.277484 -117.448178 305 5957ft 206kts
17-Feb-17 09:27 33.313717 -117.501661 310 5953ft 207kts
17-Feb-17 09:28 33.354641 -117.550435 312 5953ft 208kts
17-Feb-17 09:29 33.396009 -117.598748 312 5953ft 208kts
17-Feb-17 09:30 33.436768 -117.646423 312 6119ft 203kts
17-Feb-17 09:31 33.477450 -117.694071 312 6218ft 205kts
17-Feb-17 09:32 33.518406 -117.742180 312 6220ft 207kts
17-Feb-17 09:33 33.559683 -117.790716 312 6220ft 208kts
17-Feb-17 09:34 33.601830 -117.840311 312 6220ft 215kts
17-Feb-17 09:35 33.644959 -117.891146 312 6147ft 219kts
17-Feb-17 09:36 33.688562 -117.942563 312 6191ft 220kts
17-Feb-17 09:37 33.732980 -117.995108 312 6117ft 225kts
17-Feb-17 09:38 33.777215 -118.047528 310 6215ft 222kts
17-Feb-17 09:39 33.798181 -118.115535 285 6162ft 223kts
17-Feb-17 09:40 33.816837 -118.186896 286 6147ft 222kts
17-Feb-17 09:41 33.834903 -118.257777 285 6147ft 222kts
17-Feb-17 09:42 33.852714 -118.328122 285 6319ft 215kts
17-Feb-17 09:43 33.889511 -118.385193 316 6171ft 228kts
17-Feb-17 09:44 33.935425 -118.437230 299 6165ft 223kts
17-Feb-17 09:45 33.956697 -118.506860 290 6176ft 222kts
17-Feb-17 09:46 33.979076 -118.576047 289 6176ft 222kts
17-Feb-17 09:47 34.001184 -118.645406 289 6229ft 219kts
17-Feb-17 09:48 34.023076 -118.714351 289 6160ft 225kts
17-Feb-17 09:49 34.044924 -118.784450 287 6165ft 223kts
17-Feb-17 09:50 34.063501 -118.855534 286 6142ft 223kts
17-Feb-17 09:51 34.082499 -118.927138 286 6143ft 219kts
17-Feb-17 09:52 34.101268 -118.997643 286 6193ft 219kts
17-Feb-17 09:53 34.122236 -119.066912 295 6215ft 221kts
17-Feb-17 09:54 34.150244 -119.133252 294 6212ft 222kts
17-Feb-17 09:55 34.178184 -119.199895 294 6212ft 222kts
17-Feb-17 09:56 34.206157 -119.266781 294 6212ft 222kts
17-Feb-17 09:57 34.234224 -119.334000 294 6199ft 232kts
17-Feb-17 09:58 34.262689 -119.402311 294 6211ft 224kts
17-Feb-17 09:59 34.290606 -119.469461 294 6212ft 223kts
17-Feb-17 10:00 34.314421 -119.527344 292 6212ft 222kts
17-Feb-17 10:01 34.314421 -119.527344 292 6212ft 222kts
17-Feb-17 10:02 34.314421 -119.527344 292 6212ft 222kts
17-Feb-17 10:03 34.314421 -119.527344 292 6212ft 222kts
17-Feb-17 10:04 34.314421 -119.527344 292 6212ft 222kts
17-Feb-17 10:05 34.322070 -119.548946 291 6208ft 215kts
17-Feb-17 10:06 34.344027 -119.611491 284 6206ft 192kts
17-Feb-17 10:07 34.347781 -119.674228 272 6211ft 184kts
17-Feb-17 10:08 34.349501 -119.735792 271 6211ft 182kts
17-Feb-17 10:09 34.351156 -119.798290 272 5641ft 193kts
17-Feb-17 10:10 34.352178 -119.863904 272 4643ft 195kts
17-Feb-17 10:11 34.352604 -119.927894 272 4020ft 181kts
17-Feb-17 10:12 34.352662 -119.982349 271 4207ft 152kts
17-Feb-17 10:13 34.352682 -120.032569 271 4210ft 146kts
17-Feb-17 10:14 34.352788 -120.087768 272 3295ft 187kts
17-Feb-17 10:15 34.362999 -120.147440 326 2714ft 176kts
17-Feb-17 10:16 34.400754 -120.127587 51 2803ft 161kts
17-Feb-17 10:17 34.422313 -120.079486 77 2678ft 165kts
17-Feb-17 10:18 34.423918 -120.024367 85 2622ft 164kts
17-Feb-17 10:19 34.425169 -119.968812 86 1915ft 164kts
17-Feb-17 10:20 34.426354 -119.914784 87 1024ft 149kts
17-Feb-17 10:21 34.426870 -119.873602 84 397ft 107kts
17-Feb-17 10:22 34.427836 -119.840236 87 14ft 67kts
17-Feb-17 10:23 34.427422 -119.835171 193 14ft 0kts
17-Feb-17 10:24 34.426606 -119.838438 174 14ft 3kts
17-Feb-17 10:25 34.423793 -119.836980 112 14ft 17kts

Navigation Log

Ident Type
1. KSAN Airport
2. OCN Navaid
3. KELPS Fix
4. DANAH Fix
5. KRAUZ Fix
6. BALBO Fix
7. MIDDS Fix
8. SLI Navaid
9. POPPR Fix
10. HERMO Fix
11. LAX Navaid
12. SADDE Fix
13. VTU Navaid
14. KWANG Fix
15. KSBA Airport